sensor_id;sensor_type;location;lat;lon;timestamp;pressure;altitude;pressure_sealevel;temperature;humidity
72612;BME280;60655;52.182;4.474;2023-02-13T00:00:20;103868.06;;;9.03;75.22
72612;BME280;60655;52.182;4.474;2023-02-13T00:02:22;103859.97;;;8.95;75.45
72612;BME280;60655;52.182;4.474;2023-02-13T00:04:22;103867.63;;;8.98;75.65
72612;BME280;60655;52.182;4.474;2023-02-13T00:06:23;103865.25;;;8.95;75.72
72612;BME280;60655;52.182;4.474;2023-02-13T00:08:24;103866.41;;;9.02;75.53
72612;BME280;60655;52.182;4.474;2023-02-13T00:10:25;103866.53;;;9.00;75.37
72612;BME280;60655;52.182;4.474;2023-02-13T00:12:26;103866.03;;;8.86;75.24
72612;BME280;60655;52.182;4.474;2023-02-13T00:14:27;103861.06;;;8.92;76.25
72612;BME280;60655;52.182;4.474;2023-02-13T00:16:27;103861.69;;;8.85;75.83
72612;BME280;60655;52.182;4.474;2023-02-13T00:18:31;103856.28;;;8.86;75.97
72612;BME280;60655;52.182;4.474;2023-02-13T00:20:32;103860.47;;;8.89;75.98
72612;BME280;60655;52.182;4.474;2023-02-13T00:22:34;103861.44;;;8.88;76.10
72612;BME280;60655;52.182;4.474;2023-02-13T00:24:35;103854.25;;;8.99;76.21
72612;BME280;60655;52.182;4.474;2023-02-13T00:26:36;103858.69;;;8.99;75.59
72612;BME280;60655;52.182;4.474;2023-02-13T00:28:39;103850.31;;;8.94;76.01
72612;BME280;60655;52.182;4.474;2023-02-13T00:30:40;103848.19;;;8.88;75.52
72612;BME280;60655;52.182;4.474;2023-02-13T00:32:41;103857.38;;;8.84;75.87
72612;BME280;60655;52.182;4.474;2023-02-13T00:34:42;103860.28;;;8.80;75.86
72612;BME280;60655;52.182;4.474;2023-02-13T00:36:43;103856.47;;;8.94;75.30
72612;BME280;60655;52.182;4.474;2023-02-13T00:38:44;103856.88;;;8.99;75.73
72612;BME280;60655;52.182;4.474;2023-02-13T00:40:45;103853.94;;;8.93;75.63
72612;BME280;60655;52.182;4.474;2023-02-13T00:42:46;103856.78;;;8.80;76.02
72612;BME280;60655;52.182;4.474;2023-02-13T00:44:47;103855.50;;;8.74;76.08
72612;BME280;60655;52.182;4.474;2023-02-13T00:46:48;103856.41;;;8.85;76.22
72612;BME280;60655;52.182;4.474;2023-02-13T00:48:49;103853.03;;;8.83;76.45
72612;BME280;60655;52.182;4.474;2023-02-13T00:50:50;103853.63;;;8.86;76.21
72612;BME280;60655;52.182;4.474;2023-02-13T00:52:52;103859.38;;;8.91;76.28
72612;BME280;60655;52.182;4.474;2023-02-13T00:54:52;103850.75;;;8.99;75.71
72612;BME280;60655;52.182;4.474;2023-02-13T00:56:53;103845.81;;;8.85;75.76
72612;BME280;60655;52.182;4.474;2023-02-13T00:58:54;103858.72;;;8.78;76.42
72612;BME280;60655;52.182;4.474;2023-02-13T01:00:55;103842.81;;;8.78;76.27
72612;BME280;60655;52.182;4.474;2023-02-13T01:02:56;103853.63;;;8.86;76.02
72612;BME280;60655;52.182;4.474;2023-02-13T01:04:56;103841.53;;;8.72;76.09
72612;BME280;60655;52.182;4.474;2023-02-13T01:06:57;103841.13;;;8.77;76.21
72612;BME280;60655;52.182;4.474;2023-02-13T01:08:58;103844.13;;;8.84;76.25
72612;BME280;60655;52.182;4.474;2023-02-13T01:10:59;103837.84;;;8.85;76.42
72612;BME280;60655;52.182;4.474;2023-02-13T01:13:00;103842.44;;;8.83;76.58
72612;BME280;60655;52.182;4.474;2023-02-13T01:15:01;103843.03;;;8.86;76.53
72612;BME280;60655;52.182;4.474;2023-02-13T01:17:02;103840.63;;;8.83;76.59
72612;BME280;60655;52.182;4.474;2023-02-13T01:19:03;103842.06;;;8.87;76.32
72612;BME280;60655;52.182;4.474;2023-02-13T01:21:06;103828.22;;;8.84;76.63
72612;BME280;60655;52.182;4.474;2023-02-13T01:23:09;103832.88;;;8.91;76.66
72612;BME280;60655;52.182;4.474;2023-02-13T01:25:10;103844.06;;;8.95;76.32
72612;BME280;60655;52.182;4.474;2023-02-13T01:27:11;103836.34;;;8.92;76.20
72612;BME280;60655;52.182;4.474;2023-02-13T01:29:13;103829.97;;;8.94;76.32
72612;BME280;60655;52.182;4.474;2023-02-13T01:31:14;103832.03;;;8.91;76.44
72612;BME280;60655;52.182;4.474;2023-02-13T01:33:15;103829.50;;;8.89;76.54
72612;BME280;60655;52.182;4.474;2023-02-13T01:35:16;103827.94;;;8.87;75.74
72612;BME280;60655;52.182;4.474;2023-02-13T01:37:17;103832.34;;;8.76;76.85
72612;BME280;60655;52.182;4.474;2023-02-13T01:39:17;103833.25;;;8.87;76.32
72612;BME280;60655;52.182;4.474;2023-02-13T01:41:18;103838.75;;;8.95;76.04
72612;BME280;60655;52.182;4.474;2023-02-13T01:43:19;103828.66;;;8.89;76.00
72612;BME280;60655;52.182;4.474;2023-02-13T01:45:28;103830.34;;;8.90;75.94
72612;BME280;60655;52.182;4.474;2023-02-13T01:47:39;103831.31;;;8.89;76.25
72612;BME280;60655;52.182;4.474;2023-02-13T01:49:44;103833.84;;;8.90;76.19
72612;BME280;60655;52.182;4.474;2023-02-13T01:51:48;103834.22;;;8.86;75.98
72612;BME280;60655;52.182;4.474;2023-02-13T01:53:58;103840.13;;;8.99;75.90
72612;BME280;60655;52.182;4.474;2023-02-13T01:56:20;103832.09;;;8.79;76.21
72612;BME280;60655;52.182;4.474;2023-02-13T01:58:25;103831.38;;;8.77;76.67
72612;BME280;60655;52.182;4.474;2023-02-13T02:00:27;103840.09;;;8.89;76.39
72612;BME280;60655;52.182;4.474;2023-02-13T02:02:30;103838.81;;;8.84;76.61
72612;BME280;60655;52.182;4.474;2023-02-13T02:04:37;103833.78;;;8.80;76.79
72612;BME280;60655;52.182;4.474;2023-02-13T02:06:47;103831.44;;;8.87;76.93
72612;BME280;60655;52.182;4.474;2023-02-13T02:08:51;103836.03;;;8.85;76.45
72612;BME280;60655;52.182;4.474;2023-02-13T02:10:55;103827.06;;;8.76;76.99
72612;BME280;60655;52.182;4.474;2023-02-13T02:13:16;103821.81;;;8.86;76.70
72612;BME280;60655;52.182;4.474;2023-02-13T02:15:20;103827.50;;;8.82;77.10
72612;BME280;60655;52.182;4.474;2023-02-13T02:17:21;103829.63;;;8.88;76.64
72612;BME280;60655;52.182;4.474;2023-02-13T02:19:52;103833.78;;;8.80;76.29
72612;BME280;60655;52.182;4.474;2023-02-13T02:22:00;103824.28;;;8.78;77.07
72612;BME280;60655;52.182;4.474;2023-02-13T02:36:34;103809.56;;;8.64;77.82
72612;BME280;60655;52.182;4.474;2023-02-13T02:49:59;103795.66;;;8.51;77.84
72612;BME280;60655;52.182;4.474;2023-02-13T02:52:16;103809.28;;;8.67;77.70
72612;BME280;60655;52.182;4.474;2023-02-13T02:54:42;103795.75;;;8.70;78.10
72612;BME280;60655;52.182;4.474;2023-02-13T02:57:09;103792.59;;;8.76;77.82
72612;BME280;60655;52.182;4.474;2023-02-13T02:59:15;103797.44;;;8.71;77.30
72612;BME280;60655;52.182;4.474;2023-02-13T03:01:37;103790.63;;;8.48;78.06
72612;BME280;60655;52.182;4.474;2023-02-13T03:03:59;103806.91;;;8.64;77.99
72612;BME280;60655;52.182;4.474;2023-02-13T03:06:25;103798.81;;;8.45;78.02
72612;BME280;60655;52.182;4.474;2023-02-13T03:08:28;103802.88;;;8.49;77.92
72612;BME280;60655;52.182;4.474;2023-02-13T03:10:48;103807.16;;;8.61;77.99
72612;BME280;60655;52.182;4.474;2023-02-13T03:13:14;103799.09;;;8.63;77.72
72612;BME280;60655;52.182;4.474;2023-02-13T03:15:24;103795.63;;;8.72;77.82
72612;BME280;60655;52.182;4.474;2023-02-13T03:17:26;103803.59;;;8.72;78.07
72612;BME280;60655;52.182;4.474;2023-02-13T03:25:28;103801.47;;;8.66;77.46
72612;BME280;60655;52.182;4.474;2023-02-13T03:32:57;103802.44;;;8.65;78.21
72612;BME280;60655;52.182;4.474;2023-02-13T03:37:40;103798.53;;;8.69;78.24
72612;BME280;60655;52.182;4.474;2023-02-13T03:40:01;103787.78;;;8.61;77.91
72612;BME280;60655;52.182;4.474;2023-02-13T03:42:17;103788.63;;;8.61;78.58
72612;BME280;60655;52.182;4.474;2023-02-13T03:44:39;103787.09;;;8.68;78.56
72612;BME280;60655;52.182;4.474;2023-02-13T03:46:45;103791.53;;;8.58;78.63
72612;BME280;60655;52.182;4.474;2023-02-13T03:48:47;103784.28;;;8.60;78.52
72612;BME280;60655;52.182;4.474;2023-02-13T03:51:07;103781.63;;;8.60;78.39
72612;BME280;60655;52.182;4.474;2023-02-13T03:53:12;103780.44;;;8.74;78.16
72612;BME280;60655;52.182;4.474;2023-02-13T03:55:24;103776.56;;;8.78;77.69
72612;BME280;60655;52.182;4.474;2023-02-13T03:57:47;103772.63;;;8.72;77.68
72612;BME280;60655;52.182;4.474;2023-02-13T04:00:11;103778.59;;;8.65;78.34
72612;BME280;60655;52.182;4.474;2023-02-13T04:02:16;103780.84;;;8.69;78.05
72612;BME280;60655;52.182;4.474;2023-02-13T04:04:24;103781.78;;;8.68;77.96
72612;BME280;60655;52.182;4.474;2023-02-13T04:06:34;103787.19;;;8.57;78.25
72612;BME280;60655;52.182;4.474;2023-02-13T04:08:37;103772.59;;;8.63;78.04
72612;BME280;60655;52.182;4.474;2023-02-13T04:10:52;103778.59;;;8.65;78.53
72612;BME280;60655;52.182;4.474;2023-02-13T04:13:13;103780.53;;;8.63;77.89
72612;BME280;60655;52.182;4.474;2023-02-13T04:15:18;103767.69;;;8.58;78.47
72612;BME280;60655;52.182;4.474;2023-02-13T04:17:30;103783.31;;;8.61;78.49
72612;BME280;60655;52.182;4.474;2023-02-13T04:19:33;103774.03;;;8.76;78.81
72612;BME280;60655;52.182;4.474;2023-02-13T04:21:37;103778.75;;;8.73;78.21
72612;BME280;60655;52.182;4.474;2023-02-13T04:23:38;103784.19;;;8.71;78.22
72612;BME280;60655;52.182;4.474;2023-02-13T04:25:39;103782.97;;;8.75;78.43
72612;BME280;60655;52.182;4.474;2023-02-13T04:27:40;103773.47;;;8.73;78.31
72612;BME280;60655;52.182;4.474;2023-02-13T04:29:42;103781.28;;;8.74;78.29
72612;BME280;60655;52.182;4.474;2023-02-13T04:31:43;103785.88;;;8.72;78.25
72612;BME280;60655;52.182;4.474;2023-02-13T04:33:44;103788.53;;;8.72;78.11
72612;BME280;60655;52.182;4.474;2023-02-13T04:35:44;103776.81;;;8.75;77.74
72612;BME280;60655;52.182;4.474;2023-02-13T04:37:45;103779.13;;;8.59;78.61
72612;BME280;60655;52.182;4.474;2023-02-13T04:39:46;103773.94;;;8.57;78.13
72612;BME280;60655;52.182;4.474;2023-02-13T04:41:47;103773.84;;;8.68;78.55
72612;BME280;60655;52.182;4.474;2023-02-13T04:43:48;103770.31;;;8.58;78.76
72612;BME280;60655;52.182;4.474;2023-02-13T04:45:51;103775.63;;;8.58;78.92
72612;BME280;60655;52.182;4.474;2023-02-13T04:47:52;103776.63;;;8.67;78.64
72612;BME280;60655;52.182;4.474;2023-02-13T04:49:54;103770.34;;;8.68;78.66
72612;BME280;60655;52.182;4.474;2023-02-13T04:51:54;103775.09;;;8.64;79.09
72612;BME280;60655;52.182;4.474;2023-02-13T04:53:55;103765.03;;;8.58;78.68
72612;BME280;60655;52.182;4.474;2023-02-13T04:55:56;103767.84;;;8.66;78.68
72612;BME280;60655;52.182;4.474;2023-02-13T04:57:57;103767.22;;;8.53;78.53
72612;BME280;60655;52.182;4.474;2023-02-13T04:59:58;103763.78;;;8.62;78.61
72612;BME280;60655;52.182;4.474;2023-02-13T05:01:59;103765.34;;;8.65;79.07
72612;BME280;60655;52.182;4.474;2023-02-13T05:03:59;103771.09;;;8.49;78.86
72612;BME280;60655;52.182;4.474;2023-02-13T05:06:00;103756.88;;;8.50;78.62
72612;BME280;60655;52.182;4.474;2023-02-13T05:08:01;103769.47;;;8.58;78.90
72612;BME280;60655;52.182;4.474;2023-02-13T05:10:02;103757.72;;;8.51;78.99
72612;BME280;60655;52.182;4.474;2023-02-13T05:12:03;103760.88;;;8.65;78.76
72612;BME280;60655;52.182;4.474;2023-02-13T05:14:04;103757.94;;;8.68;78.66
72612;BME280;60655;52.182;4.474;2023-02-13T05:16:05;103765.03;;;8.58;78.58
72612;BME280;60655;52.182;4.474;2023-02-13T05:18:06;103762.81;;;8.63;78.91
72612;BME280;60655;52.182;4.474;2023-02-13T05:20:07;103770.13;;;8.50;78.64
72612;BME280;60655;52.182;4.474;2023-02-13T05:22:09;103761.53;;;8.58;79.15
72612;BME280;60655;52.182;4.474;2023-02-13T05:24:29;103770.31;;;8.58;78.93
72612;BME280;60655;52.182;4.474;2023-02-13T05:26:30;103770.66;;;8.44;79.37
72612;BME280;60655;52.182;4.474;2023-02-13T05:28:31;103764.13;;;8.48;79.14
72612;BME280;60655;52.182;4.474;2023-02-13T05:30:51;103749.91;;;8.49;79.27
72612;BME280;60655;52.182;4.474;2023-02-13T05:32:52;103763.78;;;8.41;79.23
72612;BME280;60655;52.182;4.474;2023-02-13T05:34:54;103756.69;;;8.42;79.41
72612;BME280;60655;52.182;4.474;2023-02-13T05:36:55;103763.88;;;8.51;80.05
72612;BME280;60655;52.182;4.474;2023-02-13T05:38:56;103770.53;;;8.45;79.50
72612;BME280;60655;52.182;4.474;2023-02-13T05:40:58;103766.84;;;8.37;78.55
72612;BME280;60655;52.182;4.474;2023-02-13T05:42:59;103752.34;;;8.41;79.27
72612;BME280;60655;52.182;4.474;2023-02-13T05:44:59;103764.75;;;8.40;79.47
72612;BME280;60655;52.182;4.474;2023-02-13T05:47:00;103771.63;;;8.43;79.60
72612;BME280;60655;52.182;4.474;2023-02-13T05:49:01;103764.97;;;8.49;79.55
72612;BME280;60655;52.182;4.474;2023-02-13T05:51:02;103765.09;;;8.47;79.79
72612;BME280;60655;52.182;4.474;2023-02-13T05:53:03;103766.13;;;8.56;79.30
72612;BME280;60655;52.182;4.474;2023-02-13T05:55:05;103765.53;;;8.52;79.53
72612;BME280;60655;52.182;4.474;2023-02-13T05:57:06;103773.81;;;8.59;79.24
72612;BME280;60655;52.182;4.474;2023-02-13T05:59:06;103773.22;;;8.55;79.29
72612;BME280;60655;52.182;4.474;2023-02-13T06:01:07;103770.31;;;8.58;79.42
72612;BME280;60655;52.182;4.474;2023-02-13T06:03:08;103780.13;;;8.67;79.06
72612;BME280;60655;52.182;4.474;2023-02-13T06:05:09;103767.53;;;8.60;79.05
72612;BME280;60655;52.182;4.474;2023-02-13T06:07:10;103769.41;;;8.48;79.63
72612;BME280;60655;52.182;4.474;2023-02-13T06:09:11;103763.34;;;8.57;79.10
72612;BME280;60655;52.182;4.474;2023-02-13T06:11:12;103762.06;;;8.52;79.61
72612;BME280;60655;52.182;4.474;2023-02-13T06:13:13;103767.41;;;8.61;79.69
72612;BME280;60655;52.182;4.474;2023-02-13T06:15:14;103756.31;;;8.46;79.48
72612;BME280;60655;52.182;4.474;2023-02-13T06:17:15;103761.84;;;8.43;79.94
72612;BME280;60655;52.182;4.474;2023-02-13T06:19:16;103757.00;;;8.49;79.67
72612;BME280;60655;52.182;4.474;2023-02-13T06:21:16;103751.91;;;8.57;79.54
72612;BME280;60655;52.182;4.474;2023-02-13T06:23:17;103747.38;;;8.48;80.28
72612;BME280;60655;52.182;4.474;2023-02-13T06:25:18;103749.91;;;8.49;79.50
72612;BME280;60655;52.182;4.474;2023-02-13T06:27:19;103755.84;;;8.41;79.60
72612;BME280;60655;52.182;4.474;2023-02-13T06:29:20;103751.00;;;8.46;80.14
72612;BME280;60655;52.182;4.474;2023-02-13T06:31:22;103741.38;;;8.45;79.70
72612;BME280;60655;52.182;4.474;2023-02-13T06:33:24;103749.06;;;8.49;79.60
72612;BME280;60655;52.182;4.474;2023-02-13T06:35:25;103753.53;;;8.48;79.93
72612;BME280;60655;52.182;4.474;2023-02-13T06:37:26;103752.44;;;8.51;79.89
72612;BME280;60655;52.182;4.474;2023-02-13T06:39:27;103759.09;;;8.45;79.66
72612;BME280;60655;52.182;4.474;2023-02-13T06:41:28;103746.28;;;8.50;79.89
72612;BME280;60655;52.182;4.474;2023-02-13T06:43:29;103749.91;;;8.49;79.62
72612;BME280;60655;52.182;4.474;2023-02-13T06:45:30;103765.41;;;8.54;79.82
72612;BME280;60655;52.182;4.474;2023-02-13T06:47:30;103761.94;;;8.53;79.81
72612;BME280;60655;52.182;4.474;2023-02-13T06:49:31;103762.50;;;8.57;79.85
72612;BME280;60655;52.182;4.474;2023-02-13T06:51:32;103754.63;;;8.45;80.68
72612;BME280;60655;52.182;4.474;2023-02-13T06:53:33;103765.88;;;8.59;79.99
72612;BME280;60655;52.182;4.474;2023-02-13T06:55:35;103761.00;;;8.43;80.33
72612;BME280;60655;52.182;4.474;2023-02-13T06:57:36;103773.94;;;8.57;79.48
72612;BME280;60655;52.182;4.474;2023-02-13T06:59:37;103770.59;;;8.55;79.64
72612;BME280;60655;52.182;4.474;2023-02-13T07:01:38;103777.38;;;8.48;79.88
72612;BME280;60655;52.182;4.474;2023-02-13T07:03:39;103775.81;;;8.45;80.41
72612;BME280;60655;52.182;4.474;2023-02-13T07:05:40;103773.03;;;8.47;80.15
72612;BME280;60655;52.182;4.474;2023-02-13T07:07:42;103773.63;;;8.51;80.11
72612;BME280;60655;52.182;4.474;2023-02-13T07:09:43;103773.38;;;8.54;80.15
72612;BME280;60655;52.182;4.474;2023-02-13T07:11:43;103788.22;;;8.66;79.67
72612;BME280;60655;52.182;4.474;2023-02-13T07:13:44;103788.22;;;8.66;80.09
72612;BME280;60655;52.182;4.474;2023-02-13T07:15:45;103784.41;;;8.59;79.88
72612;BME280;60655;52.182;4.474;2023-02-13T07:17:46;103790.28;;;8.62;79.67
72612;BME280;60655;52.182;4.474;2023-02-13T07:19:47;103790.47;;;8.70;79.52
72612;BME280;60655;52.182;4.474;2023-02-13T07:21:48;103789.84;;;8.57;79.59
72612;BME280;60655;52.182;4.474;2023-02-13T07:23:49;103792.03;;;8.52;80.07
72612;BME280;60655;52.182;4.474;2023-02-13T07:25:50;103790.47;;;8.50;80.38
72612;BME280;60655;52.182;4.474;2023-02-13T07:27:51;103787.75;;;8.40;80.75
72612;BME280;60655;52.182;4.474;2023-02-13T07:29:52;103785.56;;;8.45;80.81
72612;BME280;60655;52.182;4.474;2023-02-13T07:31:53;103770.47;;;8.36;81.11
72612;BME280;60655;52.182;4.474;2023-02-13T07:33:54;103789.59;;;8.60;80.05
72612;BME280;60655;52.182;4.474;2023-02-13T07:35:55;103794.88;;;8.60;80.21
72612;BME280;60655;52.182;4.474;2023-02-13T07:37:56;103795.88;;;8.69;79.91
72612;BME280;60655;52.182;4.474;2023-02-13T07:39:57;103797.69;;;8.68;80.29
72612;BME280;60655;52.182;4.474;2023-02-13T07:41:58;103792.53;;;8.67;80.00
72612;BME280;60655;52.182;4.474;2023-02-13T07:43:58;103789.03;;;8.66;80.34
72612;BME280;60655;52.182;4.474;2023-02-13T07:46:01;103794.63;;;8.63;80.29
72612;BME280;60655;52.182;4.474;2023-02-13T07:48:02;103796.25;;;8.55;80.62
72612;BME280;60655;52.182;4.474;2023-02-13T07:50:03;103788.63;;;8.61;80.36
72612;BME280;60655;52.182;4.474;2023-02-13T07:52:05;103779.78;;;8.82;79.89
72612;BME280;60655;52.182;4.474;2023-02-13T07:54:07;103789.41;;;8.83;79.90
72612;BME280;60655;52.182;4.474;2023-02-13T07:56:09;103795.25;;;8.76;79.58
72612;BME280;60655;52.182;4.474;2023-02-13T07:58:10;103791.31;;;8.71;79.81
72612;BME280;60655;52.182;4.474;2023-02-13T08:00:11;103785.56;;;8.66;80.15
72612;BME280;60655;52.182;4.474;2023-02-13T08:02:14;103789.63;;;8.70;80.73
72612;BME280;60655;52.182;4.474;2023-02-13T08:04:15;103783.72;;;8.87;79.96
72612;BME280;60655;52.182;4.474;2023-02-13T08:06:16;103794.97;;;8.79;79.93
72612;BME280;60655;52.182;4.474;2023-02-13T08:08:17;103795.81;;;8.80;80.24
72612;BME280;60655;52.182;4.474;2023-02-13T08:10:19;103794.47;;;8.86;80.41
72612;BME280;60655;52.182;4.474;2023-02-13T08:12:38;103804.75;;;8.79;80.17
72612;BME280;60655;52.182;4.474;2023-02-13T08:14:39;103800.34;;;8.89;79.82
72612;BME280;60655;52.182;4.474;2023-02-13T08:16:40;103788.63;;;8.92;79.31
72612;BME280;60655;52.182;4.474;2023-02-13T08:18:41;103798.81;;;8.96;79.24
72612;BME280;60655;52.182;4.474;2023-02-13T08:20:41;103806.75;;;8.87;79.69
72612;BME280;60655;52.182;4.474;2023-02-13T08:22:42;103803.03;;;8.99;79.30
72612;BME280;60655;52.182;4.474;2023-02-13T08:24:43;103796.59;;;8.92;79.46
72612;BME280;60655;52.182;4.474;2023-02-13T08:26:44;103791.16;;;8.93;79.42
72612;BME280;60655;52.182;4.474;2023-02-13T08:28:45;103794.47;;;8.86;79.77
72612;BME280;60655;52.182;4.474;2023-02-13T08:30:46;103798.66;;;8.88;80.15
72612;BME280;60655;52.182;4.474;2023-02-13T08:32:46;103801.66;;;9.04;80.32
72612;BME280;60655;52.182;4.474;2023-02-13T08:34:47;103795.78;;;9.01;79.77
72612;BME280;60655;52.182;4.474;2023-02-13T08:36:48;103799.13;;;9.03;79.78
72612;BME280;60655;52.182;4.474;2023-02-13T08:38:49;103795.06;;;8.99;79.76
72612;BME280;60655;52.182;4.474;2023-02-13T08:40:50;103800.94;;;9.02;79.61
72612;BME280;60655;52.182;4.474;2023-02-13T08:42:51;103809.66;;;9.14;79.91
72612;BME280;60655;52.182;4.474;2023-02-13T08:44:52;103806.50;;;9.30;79.47
72612;BME280;60655;52.182;4.474;2023-02-13T08:46:53;103810.25;;;9.27;79.49
72612;BME280;60655;52.182;4.474;2023-02-13T08:48:54;103811.34;;;9.15;79.23
72612;BME280;60655;52.182;4.474;2023-02-13T08:50:55;103804.66;;;9.21;79.25
72612;BME280;60655;52.182;4.474;2023-02-13T08:52:56;103808.59;;;9.36;79.49
72612;BME280;60655;52.182;4.474;2023-02-13T08:54:57;103797.03;;;9.37;79.02
72612;BME280;60655;52.182;4.474;2023-02-13T08:56:58;103797.88;;;9.37;78.91
72612;BME280;60655;52.182;4.474;2023-02-13T08:58:59;103796.19;;;9.36;79.13
72612;BME280;60655;52.182;4.474;2023-02-13T09:01:04;103798.84;;;9.36;79.18
72612;BME280;60655;52.182;4.474;2023-02-13T09:03:05;103792.31;;;9.50;79.27
72612;BME280;60655;52.182;4.474;2023-02-13T09:05:06;103791.75;;;9.56;79.05
72612;BME280;60655;52.182;4.474;2023-02-13T09:07:07;103793.28;;;9.59;78.88
72612;BME280;60655;52.182;4.474;2023-02-13T09:09:08;103789.66;;;9.60;78.90
72612;BME280;60655;52.182;4.474;2023-02-13T09:11:09;103795.94;;;9.59;78.60
72612;BME280;60655;52.182;4.474;2023-02-13T09:13:10;103802.66;;;9.63;78.89
72612;BME280;60655;52.182;4.474;2023-02-13T09:15:11;103803.13;;;9.77;78.24
72612;BME280;60655;52.182;4.474;2023-02-13T09:17:12;103789.41;;;9.72;77.74
72612;BME280;60655;52.182;4.474;2023-02-13T09:19:14;103796.97;;;9.77;78.43
72612;BME280;60655;52.182;4.474;2023-02-13T09:21:15;103793.06;;;9.81;78.18
72612;BME280;60655;52.182;4.474;2023-02-13T09:23:16;103787.44;;;9.84;77.75
72612;BME280;60655;52.182;4.474;2023-02-13T09:25:17;103797.38;;;9.82;78.47
72612;BME280;60655;52.182;4.474;2023-02-13T09:27:19;103792.75;;;9.84;78.26
72612;BME280;60655;52.182;4.474;2023-02-13T09:29:20;103793.34;;;9.78;78.26
72612;BME280;60655;52.182;4.474;2023-02-13T09:31:21;103793.88;;;9.62;78.23
72612;BME280;60655;52.182;4.474;2023-02-13T09:33:24;103784.38;;;9.69;78.43
72612;BME280;60655;52.182;4.474;2023-02-13T09:35:26;103802.53;;;9.83;78.27
72612;BME280;60655;52.182;4.474;2023-02-13T09:37:28;103806.47;;;9.79;77.77
72612;BME280;60655;52.182;4.474;2023-02-13T09:39:29;103807.19;;;9.81;78.18
72612;BME280;60655;52.182;4.474;2023-02-13T09:41:39;103802.81;;;9.71;77.74
72612;BME280;60655;52.182;4.474;2023-02-13T09:43:49;103800.75;;;9.74;78.01
72612;BME280;60655;52.182;4.474;2023-02-13T09:45:55;103804.66;;;9.80;77.01
72612;BME280;60655;52.182;4.474;2023-02-13T09:47:58;103795.88;;;9.79;77.20
72612;BME280;60655;52.182;4.474;2023-02-13T09:52:02;103798.63;;;9.88;77.68
72612;BME280;60655;52.182;4.474;2023-02-13T09:54:05;103791.38;;;9.90;77.66
72612;BME280;60655;52.182;4.474;2023-02-13T09:56:15;103790.97;;;9.75;77.34
72612;BME280;60655;52.182;4.474;2023-02-13T09:58:38;103792.22;;;9.80;78.14
72612;BME280;60655;52.182;4.474;2023-02-13T10:00:45;103792.63;;;9.76;77.29
72612;BME280;60655;52.182;4.474;2023-02-13T10:03:10;103788.31;;;9.94;77.65
72612;BME280;60655;52.182;4.474;2023-02-13T10:07:38;103786.34;;;9.96;77.79
72612;BME280;60655;52.182;4.474;2023-02-13T10:09:47;103794.59;;;9.74;77.44
72612;BME280;60655;52.182;4.474;2023-02-13T10:14:22;103784.41;;;9.79;77.72
72612;BME280;60655;52.182;4.474;2023-02-13T10:16:44;103787.34;;;9.95;77.72
72612;BME280;60655;52.182;4.474;2023-02-13T10:18:59;103793.06;;;9.81;76.48
72612;BME280;60655;52.182;4.474;2023-02-13T10:21:04;103787.47;;;10.03;77.21
72612;BME280;60655;52.182;4.474;2023-02-13T10:25:29;103789.44;;;10.21;77.11
72612;BME280;60655;52.182;4.474;2023-02-13T10:27:37;103793.09;;;10.20;75.78
72612;BME280;60655;52.182;4.474;2023-02-13T10:32:08;103789.44;;;10.21;76.62
72612;BME280;60655;52.182;4.474;2023-02-13T10:34:14;103784.69;;;10.24;76.53
72612;BME280;60655;52.182;4.474;2023-02-13T10:36:19;103783.28;;;10.20;75.96
72612;BME280;60655;52.182;4.474;2023-02-13T10:38:22;103785.78;;;10.41;76.48
72612;BME280;60655;52.182;4.474;2023-02-13T10:40:30;103767.84;;;10.53;76.13
72612;BME280;60655;52.182;4.474;2023-02-13T10:42:41;103780.84;;;10.65;73.94
72612;BME280;60655;52.182;4.474;2023-02-13T10:50:13;103786.88;;;10.67;74.61
72612;BME280;60655;52.182;4.474;2023-02-13T10:52:31;103776.25;;;10.58;74.44
72612;BME280;60655;52.182;4.474;2023-02-13T10:54:51;103775.38;;;10.67;74.55
72612;BME280;60655;52.182;4.474;2023-02-13T10:59:45;103781.16;;;10.43;73.62
72612;BME280;60655;52.182;4.474;2023-02-13T11:01:55;103776.78;;;10.61;73.90
72612;BME280;60655;52.182;4.474;2023-02-13T11:04:09;103774.22;;;10.79;74.07
72612;BME280;60655;52.182;4.474;2023-02-13T11:06:11;103770.66;;;10.51;73.78
72612;BME280;60655;52.182;4.474;2023-02-13T11:08:31;103763.38;;;10.53;74.66
72612;BME280;60655;52.182;4.474;2023-02-13T11:10:32;103762.59;;;10.80;74.36
72612;BME280;60655;52.182;4.474;2023-02-13T11:12:33;103759.22;;;10.88;73.80
72612;BME280;60655;52.182;4.474;2023-02-13T11:14:34;103753.44;;;10.65;73.55
72612;BME280;60655;52.182;4.474;2023-02-13T11:16:42;103761.31;;;10.84;73.90
72612;BME280;60655;52.182;4.474;2023-02-13T11:18:48;103758.19;;;10.61;73.70
72612;BME280;60655;52.182;4.474;2023-02-13T11:21:03;103745.91;;;10.88;74.17
72612;BME280;60655;52.182;4.474;2023-02-13T11:25:24;103741.44;;;10.88;72.87
72612;BME280;60655;52.182;4.474;2023-02-13T11:27:29;103737.00;;;11.06;73.73
72612;BME280;60655;52.182;4.474;2023-02-13T11:29:32;103721.81;;;11.16;73.20
72612;BME280;60655;52.182;4.474;2023-02-13T11:31:36;103719.47;;;11.31;72.72
72612;BME280;60655;52.182;4.474;2023-02-13T11:33:37;103726.72;;;11.39;72.50
72612;BME280;60655;52.182;4.474;2023-02-13T11:35:38;103723.06;;;11.40;71.89
72612;BME280;60655;52.182;4.474;2023-02-13T11:37:39;103719.56;;;11.39;71.49
72612;BME280;60655;52.182;4.474;2023-02-13T11:39:42;103728.88;;;11.53;70.79
72612;BME280;60655;52.182;4.474;2023-02-13T11:41:45;103722.22;;;11.57;70.61
72612;BME280;60655;52.182;4.474;2023-02-13T11:43:49;103726.88;;;11.55;71.61
72612;BME280;60655;52.182;4.474;2023-02-13T11:46:06;103720.19;;;11.69;71.33
72612;BME280;60655;52.182;4.474;2023-02-13T11:48:08;103724.44;;;11.62;70.77
72612;BME280;60655;52.182;4.474;2023-02-13T11:50:29;103716.84;;;11.49;71.02
72612;BME280;60655;52.182;4.474;2023-02-13T11:52:35;103713.25;;;11.58;70.50
72612;BME280;60655;52.182;4.474;2023-02-13T11:54:43;103721.56;;;11.73;71.12
72612;BME280;60655;52.182;4.474;2023-02-13T11:56:49;103708.31;;;11.45;71.37